sensor_id;sensor_type;location;lat;lon;timestamp;P1;durP1;ratioP1;P2;durP2;ratioP2
43114;SDS011;28727;50.068;14.452;2022-11-20T00:00:55;62.92;;;29.65;;
43114;SDS011;28727;50.068;14.452;2022-11-20T00:03:26;66.20;;;29.60;;
43114;SDS011;28727;50.068;14.452;2022-11-20T00:06:02;64.38;;;30.30;;
43114;SDS011;28727;50.068;14.452;2022-11-20T00:08:34;56.35;;;28.15;;
43114;SDS011;28727;50.068;14.452;2022-11-20T00:11:11;68.68;;;31.23;;
43114;SDS011;28727;50.068;14.452;2022-11-20T00:13:50;65.20;;;29.88;;
43114;SDS011;28727;50.068;14.452;2022-11-20T00:16:25;65.68;;;29.27;;
43114;SDS011;28727;50.068;14.452;2022-11-20T00:18:57;63.17;;;31.27;;
43114;SDS011;28727;50.068;14.452;2022-11-20T00:21:29;62.33;;;30.05;;
43114;SDS011;28727;50.068;14.452;2022-11-20T00:24:01;65.53;;;31.38;;
43114;SDS011;28727;50.068;14.452;2022-11-20T00:26:33;66.03;;;29.92;;
43114;SDS011;28727;50.068;14.452;2022-11-20T00:29:04;66.95;;;29.98;;
43114;SDS011;28727;50.068;14.452;2022-11-20T00:31:36;65.38;;;30.35;;
43114;SDS011;28727;50.068;14.452;2022-11-20T00:34:09;65.60;;;29.83;;
43114;SDS011;28727;50.068;14.452;2022-11-20T00:36:41;63.13;;;30.27;;
43114;SDS011;28727;50.068;14.452;2022-11-20T00:39:12;67.82;;;31.20;;
43114;SDS011;28727;50.068;14.452;2022-11-20T00:41:44;72.07;;;32.38;;
43114;SDS011;28727;50.068;14.452;2022-11-20T00:44:16;68.30;;;32.25;;
43114;SDS011;28727;50.068;14.452;2022-11-20T00:46:47;70.05;;;30.30;;
43114;SDS011;28727;50.068;14.452;2022-11-20T00:49:19;70.65;;;31.83;;
43114;SDS011;28727;50.068;14.452;2022-11-20T00:51:51;66.45;;;31.17;;
43114;SDS011;28727;50.068;14.452;2022-11-20T00:54:23;74.85;;;30.90;;
43114;SDS011;28727;50.068;14.452;2022-11-20T00:56:55;69.95;;;31.98;;
43114;SDS011;28727;50.068;14.452;2022-11-20T00:59:26;68.03;;;30.77;;
43114;SDS011;28727;50.068;14.452;2022-11-20T01:02:00;77.80;;;32.92;;
43114;SDS011;28727;50.068;14.452;2022-11-20T01:04:31;71.10;;;30.40;;
43114;SDS011;28727;50.068;14.452;2022-11-20T01:07:03;72.65;;;30.33;;
43114;SDS011;28727;50.068;14.452;2022-11-20T01:09:35;71.28;;;29.60;;
43114;SDS011;28727;50.068;14.452;2022-11-20T01:12:06;74.63;;;32.80;;
43114;SDS011;28727;50.068;14.452;2022-11-20T01:14:38;71.65;;;30.33;;
43114;SDS011;28727;50.068;14.452;2022-11-20T01:17:10;73.28;;;31.42;;
43114;SDS011;28727;50.068;14.452;2022-11-20T01:19:41;74.80;;;31.67;;
43114;SDS011;28727;50.068;14.452;2022-11-20T01:22:13;68.38;;;29.98;;
43114;SDS011;28727;50.068;14.452;2022-11-20T01:24:45;73.13;;;31.92;;
43114;SDS011;28727;50.068;14.452;2022-11-20T01:27:16;70.50;;;31.75;;
43114;SDS011;28727;50.068;14.452;2022-11-20T01:29:48;76.88;;;32.45;;
43114;SDS011;28727;50.068;14.452;2022-11-20T01:32:19;74.43;;;33.15;;
43114;SDS011;28727;50.068;14.452;2022-11-20T01:34:51;74.93;;;32.25;;
43114;SDS011;28727;50.068;14.452;2022-11-20T01:37:22;74.78;;;32.13;;
43114;SDS011;28727;50.068;14.452;2022-11-20T01:39:54;74.10;;;31.08;;
43114;SDS011;28727;50.068;14.452;2022-11-20T01:42:26;76.35;;;30.92;;
43114;SDS011;28727;50.068;14.452;2022-11-20T01:48:49;64.63;;;29.85;;
43114;SDS011;28727;50.068;14.452;2022-11-20T01:54:06;67.00;;;28.77;;
43114;SDS011;28727;50.068;14.452;2022-11-20T01:56:44;73.65;;;31.60;;
43114;SDS011;28727;50.068;14.452;2022-11-20T01:59:17;65.32;;;28.38;;
43114;SDS011;28727;50.068;14.452;2022-11-20T02:01:51;70.97;;;29.73;;
43114;SDS011;28727;50.068;14.452;2022-11-20T02:04:24;65.68;;;27.85;;
43114;SDS011;28727;50.068;14.452;2022-11-20T02:06:58;63.72;;;27.38;;
43114;SDS011;28727;50.068;14.452;2022-11-20T02:12:03;74.03;;;30.02;;
43114;SDS011;28727;50.068;14.452;2022-11-20T02:14:35;69.60;;;28.77;;
43114;SDS011;28727;50.068;14.452;2022-11-20T02:17:07;68.47;;;29.73;;
43114;SDS011;28727;50.068;14.452;2022-11-20T02:19:39;68.85;;;28.70;;
43114;SDS011;28727;50.068;14.452;2022-11-20T02:22:14;69.00;;;30.10;;
43114;SDS011;28727;50.068;14.452;2022-11-20T02:25:09;65.20;;;29.90;;
43114;SDS011;28727;50.068;14.452;2022-11-20T02:27:42;63.58;;;27.80;;
43114;SDS011;28727;50.068;14.452;2022-11-20T02:30:14;68.13;;;27.73;;
43114;SDS011;28727;50.068;14.452;2022-11-20T02:32:46;61.30;;;26.75;;
43114;SDS011;28727;50.068;14.452;2022-11-20T02:37:57;66.13;;;28.85;;
43114;SDS011;28727;50.068;14.452;2022-11-20T02:40:31;65.03;;;28.42;;
43114;SDS011;28727;50.068;14.452;2022-11-20T02:43:03;59.10;;;26.77;;
43114;SDS011;28727;50.068;14.452;2022-11-20T02:45:35;66.40;;;29.63;;
43114;SDS011;28727;50.068;14.452;2022-11-20T02:48:06;63.40;;;27.33;;
43114;SDS011;28727;50.068;14.452;2022-11-20T02:50:39;63.63;;;27.08;;
43114;SDS011;28727;50.068;14.452;2022-11-20T02:53:11;58.10;;;26.30;;
43114;SDS011;28727;50.068;14.452;2022-11-20T02:55:42;60.90;;;26.52;;
43114;SDS011;28727;50.068;14.452;2022-11-20T02:58:14;65.90;;;27.77;;
43114;SDS011;28727;50.068;14.452;2022-11-20T03:00:46;58.05;;;25.55;;
43114;SDS011;28727;50.068;14.452;2022-11-20T03:03:20;59.27;;;28.00;;
43114;SDS011;28727;50.068;14.452;2022-11-20T03:05:51;58.78;;;25.33;;
43114;SDS011;28727;50.068;14.452;2022-11-20T03:08:26;62.97;;;27.02;;
43114;SDS011;28727;50.068;14.452;2022-11-20T03:11:01;67.55;;;28.13;;
43114;SDS011;28727;50.068;14.452;2022-11-20T03:13:34;66.93;;;26.63;;
43114;SDS011;28727;50.068;14.452;2022-11-20T03:16:11;63.67;;;26.67;;
43114;SDS011;28727;50.068;14.452;2022-11-20T03:18:45;60.90;;;26.50;;
43114;SDS011;28727;50.068;14.452;2022-11-20T03:21:17;58.05;;;25.73;;
43114;SDS011;28727;50.068;14.452;2022-11-20T03:23:49;55.22;;;25.63;;
43114;SDS011;28727;50.068;14.452;2022-11-20T03:26:21;59.28;;;26.80;;
43114;SDS011;28727;50.068;14.452;2022-11-20T03:28:56;66.97;;;26.80;;
43114;SDS011;28727;50.068;14.452;2022-11-20T03:31:39;63.25;;;27.85;;
43114;SDS011;28727;50.068;14.452;2022-11-20T03:34:11;62.63;;;27.23;;
43114;SDS011;28727;50.068;14.452;2022-11-20T03:36:43;65.18;;;28.25;;
43114;SDS011;28727;50.068;14.452;2022-11-20T03:39:15;59.25;;;25.70;;
43114;SDS011;28727;50.068;14.452;2022-11-20T03:41:46;53.00;;;22.95;;
43114;SDS011;28727;50.068;14.452;2022-11-20T03:44:20;59.10;;;26.15;;
43114;SDS011;28727;50.068;14.452;2022-11-20T03:46:52;52.95;;;24.70;;
43114;SDS011;28727;50.068;14.452;2022-11-20T03:49:24;54.30;;;24.45;;
43114;SDS011;28727;50.068;14.452;2022-11-20T03:51:55;59.35;;;25.98;;
43114;SDS011;28727;50.068;14.452;2022-11-20T03:54:27;56.65;;;25.67;;
43114;SDS011;28727;50.068;14.452;2022-11-20T03:56:59;58.88;;;25.40;;
43114;SDS011;28727;50.068;14.452;2022-11-20T03:59:30;60.55;;;26.63;;
43114;SDS011;28727;50.068;14.452;2022-11-20T04:02:02;59.90;;;25.85;;
43114;SDS011;28727;50.068;14.452;2022-11-20T04:04:34;53.40;;;24.45;;
43114;SDS011;28727;50.068;14.452;2022-11-20T04:07:08;56.22;;;25.17;;
43114;SDS011;28727;50.068;14.452;2022-11-20T04:09:40;56.75;;;26.20;;
43114;SDS011;28727;50.068;14.452;2022-11-20T04:12:11;57.45;;;27.10;;
43114;SDS011;28727;50.068;14.452;2022-11-20T04:14:45;61.95;;;31.08;;
43114;SDS011;28727;50.068;14.452;2022-11-20T04:17:17;66.47;;;31.05;;
43114;SDS011;28727;50.068;14.452;2022-11-20T04:19:49;65.65;;;31.30;;
43114;SDS011;28727;50.068;14.452;2022-11-20T04:22:20;58.90;;;26.98;;
43114;SDS011;28727;50.068;14.452;2022-11-20T04:24:52;60.85;;;29.30;;
43114;SDS011;28727;50.068;14.452;2022-11-20T04:27:24;61.90;;;29.70;;
43114;SDS011;28727;50.068;14.452;2022-11-20T04:29:55;62.88;;;28.77;;
43114;SDS011;28727;50.068;14.452;2022-11-20T04:32:27;64.88;;;28.27;;
43114;SDS011;28727;50.068;14.452;2022-11-20T04:34:59;64.90;;;29.67;;
43114;SDS011;28727;50.068;14.452;2022-11-20T04:37:31;67.00;;;30.90;;
43114;SDS011;28727;50.068;14.452;2022-11-20T04:40:03;63.10;;;27.33;;
43114;SDS011;28727;50.068;14.452;2022-11-20T04:42:35;58.47;;;28.05;;
43114;SDS011;28727;50.068;14.452;2022-11-20T04:45:06;66.13;;;28.60;;
43114;SDS011;28727;50.068;14.452;2022-11-20T04:47:38;62.13;;;28.20;;
43114;SDS011;28727;50.068;14.452;2022-11-20T04:50:10;65.03;;;27.65;;
43114;SDS011;28727;50.068;14.452;2022-11-20T04:52:41;61.67;;;27.73;;
43114;SDS011;28727;50.068;14.452;2022-11-20T04:55:13;60.50;;;27.10;;
43114;SDS011;28727;50.068;14.452;2022-11-20T04:57:45;63.25;;;27.45;;
43114;SDS011;28727;50.068;14.452;2022-11-20T05:00:16;59.53;;;26.98;;
43114;SDS011;28727;50.068;14.452;2022-11-20T05:02:48;60.75;;;27.13;;
43114;SDS011;28727;50.068;14.452;2022-11-20T05:05:20;64.68;;;27.45;;
43114;SDS011;28727;50.068;14.452;2022-11-20T05:07:55;67.60;;;28.65;;
43114;SDS011;28727;50.068;14.452;2022-11-20T05:13:00;68.28;;;28.83;;
43114;SDS011;28727;50.068;14.452;2022-11-20T05:15:32;70.13;;;29.83;;
43114;SDS011;28727;50.068;14.452;2022-11-20T05:18:03;71.90;;;31.80;;
43114;SDS011;28727;50.068;14.452;2022-11-20T05:20:35;66.93;;;29.92;;
43114;SDS011;28727;50.068;14.452;2022-11-20T05:23:07;66.38;;;30.67;;
43114;SDS011;28727;50.068;14.452;2022-11-20T05:25:39;67.25;;;30.13;;
43114;SDS011;28727;50.068;14.452;2022-11-20T05:28:10;64.07;;;29.75;;
43114;SDS011;28727;50.068;14.452;2022-11-20T05:30:42;66.93;;;28.33;;
43114;SDS011;28727;50.068;14.452;2022-11-20T05:33:13;65.45;;;29.17;;
43114;SDS011;28727;50.068;14.452;2022-11-20T05:35:45;67.40;;;29.67;;
43114;SDS011;28727;50.068;14.452;2022-11-20T05:38:17;67.93;;;30.20;;
43114;SDS011;28727;50.068;14.452;2022-11-20T05:40:49;63.53;;;29.00;;
43114;SDS011;28727;50.068;14.452;2022-11-20T05:43:20;61.75;;;29.13;;
43114;SDS011;28727;50.068;14.452;2022-11-20T05:45:53;65.45;;;28.63;;
43114;SDS011;28727;50.068;14.452;2022-11-20T05:48:28;64.38;;;28.02;;
43114;SDS011;28727;50.068;14.452;2022-11-20T05:51:00;68.13;;;29.17;;
43114;SDS011;28727;50.068;14.452;2022-11-20T05:53:35;66.35;;;28.15;;
43114;SDS011;28727;50.068;14.452;2022-11-20T05:56:09;67.63;;;28.75;;
43114;SDS011;28727;50.068;14.452;2022-11-20T05:58:42;65.88;;;29.02;;
43114;SDS011;28727;50.068;14.452;2022-11-20T06:01:20;68.15;;;28.88;;
43114;SDS011;28727;50.068;14.452;2022-11-20T06:03:57;67.25;;;30.20;;
43114;SDS011;28727;50.068;14.452;2022-11-20T06:06:28;62.45;;;29.00;;
43114;SDS011;28727;50.068;14.452;2022-11-20T06:09:00;64.55;;;29.67;;
43114;SDS011;28727;50.068;14.452;2022-11-20T06:11:31;62.75;;;27.92;;
43114;SDS011;28727;50.068;14.452;2022-11-20T06:14:03;61.35;;;30.45;;
43114;SDS011;28727;50.068;14.452;2022-11-20T06:16:35;69.05;;;29.25;;
43114;SDS011;28727;50.068;14.452;2022-11-20T06:19:06;66.93;;;29.65;;
43114;SDS011;28727;50.068;14.452;2022-11-20T06:21:38;64.10;;;28.02;;
43114;SDS011;28727;50.068;14.452;2022-11-20T06:24:10;61.88;;;28.15;;
43114;SDS011;28727;50.068;14.452;2022-11-20T06:26:42;64.25;;;28.20;;
43114;SDS011;28727;50.068;14.452;2022-11-20T06:29:14;62.03;;;28.55;;
43114;SDS011;28727;50.068;14.452;2022-11-20T06:31:45;69.55;;;29.58;;
43114;SDS011;28727;50.068;14.452;2022-11-20T06:34:17;60.53;;;28.35;;
43114;SDS011;28727;50.068;14.452;2022-11-20T06:36:49;66.63;;;29.50;;
43114;SDS011;28727;50.068;14.452;2022-11-20T06:39:23;63.38;;;28.98;;
43114;SDS011;28727;50.068;14.452;2022-11-20T06:41:55;64.43;;;27.60;;
43114;SDS011;28727;50.068;14.452;2022-11-20T06:44:29;64.22;;;28.00;;
43114;SDS011;28727;50.068;14.452;2022-11-20T06:47:01;64.47;;;28.83;;
43114;SDS011;28727;50.068;14.452;2022-11-20T06:49:33;61.75;;;27.50;;
43114;SDS011;28727;50.068;14.452;2022-11-20T06:52:05;61.75;;;27.30;;
43114;SDS011;28727;50.068;14.452;2022-11-20T06:54:37;56.65;;;27.58;;
43114;SDS011;28727;50.068;14.452;2022-11-20T06:57:09;56.58;;;27.38;;
43114;SDS011;28727;50.068;14.452;2022-11-20T06:59:40;57.08;;;26.75;;
43114;SDS011;28727;50.068;14.452;2022-11-20T07:02:12;58.47;;;26.55;;
43114;SDS011;28727;50.068;14.452;2022-11-20T07:04:47;63.60;;;26.30;;
43114;SDS011;28727;50.068;14.452;2022-11-20T07:07:18;57.38;;;27.33;;
43114;SDS011;28727;50.068;14.452;2022-11-20T07:09:50;59.88;;;27.80;;
43114;SDS011;28727;50.068;14.452;2022-11-20T07:12:22;60.70;;;27.90;;
43114;SDS011;28727;50.068;14.452;2022-11-20T07:14:53;58.53;;;27.15;;
43114;SDS011;28727;50.068;14.452;2022-11-20T07:17:26;65.55;;;28.90;;
43114;SDS011;28727;50.068;14.452;2022-11-20T07:19:57;62.72;;;27.38;;
43114;SDS011;28727;50.068;14.452;2022-11-20T07:22:29;57.88;;;26.02;;
43114;SDS011;28727;50.068;14.452;2022-11-20T07:25:04;58.42;;;25.50;;
43114;SDS011;28727;50.068;14.452;2022-11-20T07:27:36;53.75;;;24.67;;
43114;SDS011;28727;50.068;14.452;2022-11-20T07:30:07;57.25;;;26.10;;
43114;SDS011;28727;50.068;14.452;2022-11-20T07:32:40;52.25;;;25.45;;
43114;SDS011;28727;50.068;14.452;2022-11-20T07:35:11;54.05;;;25.20;;
43114;SDS011;28727;50.068;14.452;2022-11-20T07:37:46;52.83;;;25.55;;
43114;SDS011;28727;50.068;14.452;2022-11-20T07:40:19;55.97;;;25.73;;
43114;SDS011;28727;50.068;14.452;2022-11-20T07:42:53;54.08;;;25.98;;
43114;SDS011;28727;50.068;14.452;2022-11-20T07:45:26;42.30;;;18.53;;
43114;SDS011;28727;50.068;14.452;2022-11-20T07:47:58;49.90;;;24.30;;
43114;SDS011;28727;50.068;14.452;2022-11-20T07:50:32;52.67;;;24.23;;
43114;SDS011;28727;50.068;14.452;2022-11-20T07:53:06;52.88;;;23.00;;
43114;SDS011;28727;50.068;14.452;2022-11-20T07:55:38;49.65;;;22.98;;
43114;SDS011;28727;50.068;14.452;2022-11-20T07:58:11;54.13;;;26.33;;
43114;SDS011;28727;50.068;14.452;2022-11-20T08:00:43;51.63;;;24.10;;
43114;SDS011;28727;50.068;14.452;2022-11-20T08:03:14;51.47;;;25.00;;
43114;SDS011;28727;50.068;14.452;2022-11-20T08:05:54;58.63;;;26.92;;
43114;SDS011;28727;50.068;14.452;2022-11-20T08:08:31;56.38;;;26.23;;
43114;SDS011;28727;50.068;14.452;2022-11-20T08:11:05;60.95;;;27.92;;
43114;SDS011;28727;50.068;14.452;2022-11-20T08:14:06;56.03;;;25.75;;
43114;SDS011;28727;50.068;14.452;2022-11-20T08:16:45;58.38;;;26.52;;
43114;SDS011;28727;50.068;14.452;2022-11-20T08:19:18;57.63;;;26.92;;
43114;SDS011;28727;50.068;14.452;2022-11-20T08:21:50;55.95;;;27.63;;
43114;SDS011;28727;50.068;14.452;2022-11-20T08:24:22;56.67;;;26.23;;
43114;SDS011;28727;50.068;14.452;2022-11-20T08:26:56;58.13;;;27.23;;
43114;SDS011;28727;50.068;14.452;2022-11-20T08:29:29;61.13;;;27.38;;
43114;SDS011;28727;50.068;14.452;2022-11-20T08:32:00;58.42;;;27.05;;
43114;SDS011;28727;50.068;14.452;2022-11-20T08:34:32;60.58;;;26.63;;
43114;SDS011;28727;50.068;14.452;2022-11-20T08:37:04;56.75;;;26.55;;
43114;SDS011;28727;50.068;14.452;2022-11-20T08:39:35;49.38;;;24.40;;
43114;SDS011;28727;50.068;14.452;2022-11-20T08:42:07;56.70;;;26.13;;
43114;SDS011;28727;50.068;14.452;2022-11-20T08:44:39;55.30;;;25.20;;
43114;SDS011;28727;50.068;14.452;2022-11-20T08:47:11;58.45;;;27.38;;
43114;SDS011;28727;50.068;14.452;2022-11-20T08:49:42;64.32;;;28.45;;
43114;SDS011;28727;50.068;14.452;2022-11-20T08:52:14;57.42;;;26.70;;
43114;SDS011;28727;50.068;14.452;2022-11-20T08:54:46;57.53;;;27.90;;
43114;SDS011;28727;50.068;14.452;2022-11-20T08:57:17;55.35;;;27.25;;
43114;SDS011;28727;50.068;14.452;2022-11-20T08:59:49;56.35;;;26.92;;
43114;SDS011;28727;50.068;14.452;2022-11-20T09:02:37;55.92;;;25.75;;
43114;SDS011;28727;50.068;14.452;2022-11-20T09:05:09;52.92;;;26.27;;
43114;SDS011;28727;50.068;14.452;2022-11-20T09:07:41;55.00;;;25.38;;
43114;SDS011;28727;50.068;14.452;2022-11-20T09:10:13;52.58;;;23.55;;
43114;SDS011;28727;50.068;14.452;2022-11-20T09:13:00;54.85;;;25.98;;
43114;SDS011;28727;50.068;14.452;2022-11-20T09:15:32;50.13;;;24.80;;
43114;SDS011;28727;50.068;14.452;2022-11-20T09:18:05;56.20;;;27.77;;
43114;SDS011;28727;50.068;14.452;2022-11-20T09:20:36;52.28;;;25.25;;
43114;SDS011;28727;50.068;14.452;2022-11-20T09:23:08;50.17;;;25.23;;
43114;SDS011;28727;50.068;14.452;2022-11-20T09:25:40;52.15;;;24.15;;
43114;SDS011;28727;50.068;14.452;2022-11-20T09:28:12;53.90;;;25.40;;
43114;SDS011;28727;50.068;14.452;2022-11-20T09:30:44;51.15;;;24.13;;
43114;SDS011;28727;50.068;14.452;2022-11-20T09:33:16;59.63;;;25.83;;
43114;SDS011;28727;50.068;14.452;2022-11-20T09:35:48;48.13;;;23.80;;
43114;SDS011;28727;50.068;14.452;2022-11-20T09:38:19;54.17;;;25.13;;
43114;SDS011;28727;50.068;14.452;2022-11-20T09:40:54;53.95;;;26.52;;
43114;SDS011;28727;50.068;14.452;2022-11-20T09:54:30;53.67;;;26.95;;
43114;SDS011;28727;50.068;14.452;2022-11-20T09:57:05;61.80;;;27.70;;
43114;SDS011;28727;50.068;14.452;2022-11-20T09:59:46;57.30;;;25.98;;
43114;SDS011;28727;50.068;14.452;2022-11-20T10:05:36;53.22;;;26.20;;
43114;SDS011;28727;50.068;14.452;2022-11-20T10:10:54;56.00;;;27.38;;
43114;SDS011;28727;50.068;14.452;2022-11-20T10:13:39;55.78;;;26.52;;
43114;SDS011;28727;50.068;14.452;2022-11-20T10:19:24;58.80;;;27.67;;
43114;SDS011;28727;50.068;14.452;2022-11-20T10:22:04;59.03;;;27.27;;
43114;SDS011;28727;50.068;14.452;2022-11-20T10:30:08;59.63;;;27.05;;
43114;SDS011;28727;50.068;14.452;2022-11-20T10:32:43;59.15;;;27.33;;
43114;SDS011;28727;50.068;14.452;2022-11-20T10:35:22;62.72;;;28.50;;
43114;SDS011;28727;50.068;14.452;2022-11-20T10:37:59;61.45;;;28.55;;
43114;SDS011;28727;50.068;14.452;2022-11-20T10:43:24;55.60;;;27.60;;
43114;SDS011;28727;50.068;14.452;2022-11-20T10:46:04;58.72;;;27.30;;
43114;SDS011;28727;50.068;14.452;2022-11-20T10:48:39;58.97;;;26.33;;
43114;SDS011;28727;50.068;14.452;2022-11-20T10:54:00;60.33;;;29.30;;
43114;SDS011;28727;50.068;14.452;2022-11-20T10:56:52;56.97;;;28.25;;
43114;SDS011;28727;50.068;14.452;2022-11-20T10:59:31;59.72;;;28.48;;
43114;SDS011;28727;50.068;14.452;2022-11-20T11:02:24;60.40;;;30.58;;
43114;SDS011;28727;50.068;14.452;2022-11-20T11:05:08;60.00;;;28.73;;
43114;SDS011;28727;50.068;14.452;2022-11-20T11:08:00;60.13;;;28.98;;
43114;SDS011;28727;50.068;14.452;2022-11-20T11:10:36;58.45;;;29.25;;
43114;SDS011;28727;50.068;14.452;2022-11-20T11:16:24;61.38;;;30.50;;
43114;SDS011;28727;50.068;14.452;2022-11-20T11:19:10;63.35;;;29.63;;
43114;SDS011;28727;50.068;14.452;2022-11-20T11:21:46;62.53;;;28.70;;
43114;SDS011;28727;50.068;14.452;2022-11-20T11:24:26;61.85;;;29.42;;
43114;SDS011;28727;50.068;14.452;2022-11-20T11:27:13;56.80;;;27.08;;
43114;SDS011;28727;50.068;14.452;2022-11-20T11:29:49;62.80;;;31.08;;
43114;SDS011;28727;50.068;14.452;2022-11-20T11:32:21;61.25;;;29.70;;
43114;SDS011;28727;50.068;14.452;2022-11-20T11:35:03;64.60;;;31.75;;
43114;SDS011;28727;50.068;14.452;2022-11-20T11:37:37;69.40;;;31.42;;
43114;SDS011;28727;50.068;14.452;2022-11-20T11:40:10;61.22;;;30.40;;
43114;SDS011;28727;50.068;14.452;2022-11-20T11:43:02;60.25;;;30.95;;
43114;SDS011;28727;50.068;14.452;2022-11-20T11:45:57;63.95;;;30.80;;
43114;SDS011;28727;50.068;14.452;2022-11-20T11:48:28;64.15;;;31.30;;
43114;SDS011;28727;50.068;14.452;2022-11-20T11:51:00;63.53;;;30.58;;
43114;SDS011;28727;50.068;14.452;2022-11-20T11:53:32;64.40;;;31.55;;
43114;SDS011;28727;50.068;14.452;2022-11-20T11:56:10;63.85;;;30.80;;
43114;SDS011;28727;50.068;14.452;2022-11-20T11:58:45;67.65;;;33.40;;
43114;SDS011;28727;50.068;14.452;2022-11-20T12:07:00;60.45;;;31.65;;
43114;SDS011;28727;50.068;14.452;2022-11-20T12:09:59;59.38;;;31.02;;
43114;SDS011;28727;50.068;14.452;2022-11-20T12:12:36;63.13;;;30.95;;
43114;SDS011;28727;50.068;14.452;2022-11-20T12:15:13;63.03;;;30.40;;
43114;SDS011;28727;50.068;14.452;2022-11-20T12:17:54;57.95;;;30.10;;
43114;SDS011;28727;50.068;14.452;2022-11-20T12:20:28;62.92;;;29.77;;
43114;SDS011;28727;50.068;14.452;2022-11-20T12:25:50;67.05;;;31.17;;
43114;SDS011;28727;50.068;14.452;2022-11-20T12:28:37;56.33;;;28.63;;
43114;SDS011;28727;50.068;14.452;2022-11-20T12:34:19;61.80;;;30.48;;
43114;SDS011;28727;50.068;14.452;2022-11-20T12:39:47;65.75;;;31.38;;
43114;SDS011;28727;50.068;14.452;2022-11-20T12:45:37;65.45;;;32.17;;
43114;SDS011;28727;50.068;14.452;2022-11-20T13:02:26;61.50;;;31.00;;
43114;SDS011;28727;50.068;14.452;2022-11-20T13:07:50;63.47;;;31.67;;
43114;SDS011;28727;50.068;14.452;2022-11-20T13:10:43;63.58;;;31.95;;
43114;SDS011;28727;50.068;14.452;2022-11-20T13:16:23;65.75;;;31.77;;
43114;SDS011;28727;50.068;14.452;2022-11-20T13:19:09;66.55;;;31.85;;
43114;SDS011;28727;50.068;14.452;2022-11-20T13:21:47;63.60;;;30.50;;
43114;SDS011;28727;50.068;14.452;2022-11-20T13:27:03;63.55;;;31.60;;
43114;SDS011;28727;50.068;14.452;2022-11-20T13:29:59;62.17;;;30.80;;
43114;SDS011;28727;50.068;14.452;2022-11-20T13:32:55;61.95;;;31.85;;
43114;SDS011;28727;50.068;14.452;2022-11-20T13:36:23;62.65;;;30.27;;
43114;SDS011;28727;50.068;14.452;2022-11-20T13:38:54;46.17;;;23.48;;
43114;SDS011;28727;50.068;14.452;2022-11-20T13:41:28;63.05;;;30.27;;
43114;SDS011;28727;50.068;14.452;2022-11-20T13:46:53;64.97;;;31.48;;
43114;SDS011;28727;50.068;14.452;2022-11-20T13:58:12;61.35;;;31.20;;
43114;SDS011;28727;50.068;14.452;2022-11-20T14:01:15;67.82;;;31.92;;
43114;SDS011;28727;50.068;14.452;2022-11-20T14:03:52;65.80;;;32.35;;
43114;SDS011;28727;50.068;14.452;2022-11-20T14:06:41;63.92;;;32.33;;
43114;SDS011;28727;50.068;14.452;2022-11-20T14:09:30;60.90;;;30.58;;
43114;SDS011;28727;50.068;14.452;2022-11-20T14:12:03;67.35;;;32.00;;
43114;SDS011;28727;50.068;14.452;2022-11-20T14:14:49;68.38;;;31.50;;
43114;SDS011;28727;50.068;14.452;2022-11-20T14:20:01;71.78;;;34.83;;
43114;SDS011;28727;50.068;14.452;2022-11-20T14:22:49;62.33;;;31.95;;
43114;SDS011;28727;50.068;14.452;2022-11-20T14:25:22;66.65;;;33.35;;
43114;SDS011;28727;50.068;14.452;2022-11-20T14:27:59;67.03;;;33.03;;
43114;SDS011;28727;50.068;14.452;2022-11-20T14:30:42;66.32;;;33.17;;
43114;SDS011;28727;50.068;14.452;2022-11-20T14:33:15;66.10;;;32.80;;
43114;SDS011;28727;50.068;14.452;2022-11-20T14:35:49;61.35;;;30.30;;
43114;SDS011;28727;50.068;14.452;2022-11-20T14:38:32;64.70;;;33.42;;
43114;SDS011;28727;50.068;14.452;2022-11-20T14:41:07;65.93;;;31.77;;
43114;SDS011;28727;50.068;14.452;2022-11-20T14:44:08;64.55;;;32.75;;
43114;SDS011;28727;50.068;14.452;2022-11-20T14:46:41;66.63;;;33.03;;
43114;SDS011;28727;50.068;14.452;2022-11-20T14:49:13;71.93;;;32.05;;
43114;SDS011;28727;50.068;14.452;2022-11-20T14:51:45;68.28;;;31.88;;
43114;SDS011;28727;50.068;14.452;2022-11-20T14:54:18;66.68;;;32.30;;
43114;SDS011;28727;50.068;14.452;2022-11-20T14:56:59;68.10;;;33.65;;
43114;SDS011;28727;50.068;14.452;2022-11-20T14:59:34;68.43;;;33.80;;
43114;SDS011;28727;50.068;14.452;2022-11-20T15:02:10;69.82;;;35.30;;
43114;SDS011;28727;50.068;14.452;2022-11-20T15:04:45;74.57;;;34.78;;
43114;SDS011;28727;50.068;14.452;2022-11-20T15:07:24;71.60;;;34.70;;
43114;SDS011;28727;50.068;14.452;2022-11-20T15:10:07;75.45;;;34.80;;
43114;SDS011;28727;50.068;14.452;2022-11-20T15:12:54;71.00;;;33.10;;
43114;SDS011;28727;50.068;14.452;2022-11-20T15:15:50;68.97;;;34.35;;
43114;SDS011;28727;50.068;14.452;2022-11-20T15:18:44;76.15;;;35.03;;
43114;SDS011;28727;50.068;14.452;2022-11-20T15:21:16;73.47;;;35.53;;
43114;SDS011;28727;50.068;14.452;2022-11-20T15:23:52;72.07;;;37.35;;
43114;SDS011;28727;50.068;14.452;2022-11-20T15:26:25;78.65;;;36.33;;
43114;SDS011;28727;50.068;14.452;2022-11-20T15:28:58;74.65;;;35.17;;
43114;SDS011;28727;50.068;14.452;2022-11-20T15:31:30;71.47;;;34.97;;
43114;SDS011;28727;50.068;14.452;2022-11-20T15:34:01;71.82;;;34.25;;
43114;SDS011;28727;50.068;14.452;2022-11-20T15:36:33;71.97;;;35.28;;
43114;SDS011;28727;50.068;14.452;2022-11-20T15:39:05;74.65;;;37.13;;
43114;SDS011;28727;50.068;14.452;2022-11-20T15:41:38;74.40;;;35.00;;
43114;SDS011;28727;50.068;14.452;2022-11-20T15:44:10;72.07;;;36.63;;
43114;SDS011;28727;50.068;14.452;2022-11-20T15:46:45;76.03;;;34.65;;
43114;SDS011;28727;50.068;14.452;2022-11-20T15:49:17;73.70;;;34.95;;
43114;SDS011;28727;50.068;14.452;2022-11-20T15:51:54;75.45;;;37.03;;
43114;SDS011;28727;50.068;14.452;2022-11-20T15:54:25;70.13;;;34.22;;
43114;SDS011;28727;50.068;14.452;2022-11-20T15:56:57;78.53;;;36.85;;
43114;SDS011;28727;50.068;14.452;2022-11-20T15:59:32;82.85;;;37.15;;
43114;SDS011;28727;50.068;14.452;2022-11-20T16:02:07;72.22;;;34.83;;
43114;SDS011;28727;50.068;14.452;2022-11-20T16:04:49;68.65;;;34.70;;
43114;SDS011;28727;50.068;14.452;2022-11-20T16:07:21;79.53;;;37.40;;
43114;SDS011;28727;50.068;14.452;2022-11-20T16:09:55;69.28;;;34.70;;
43114;SDS011;28727;50.068;14.452;2022-11-20T16:12:27;72.22;;;35.67;;
43114;SDS011;28727;50.068;14.452;2022-11-20T16:15:19;75.28;;;36.22;;
43114;SDS011;28727;50.068;14.452;2022-11-20T16:18:10;76.18;;;36.30;;
43114;SDS011;28727;50.068;14.452;2022-11-20T16:20:43;74.03;;;35.22;;
43114;SDS011;28727;50.068;14.452;2022-11-20T16:23:19;75.22;;;35.45;;
43114;SDS011;28727;50.068;14.452;2022-11-20T16:25:51;74.57;;;35.97;;
43114;SDS011;28727;50.068;14.452;2022-11-20T16:28:23;77.68;;;35.00;;
43114;SDS011;28727;50.068;14.452;2022-11-20T16:30:54;75.22;;;36.13;;
43114;SDS011;28727;50.068;14.452;2022-11-20T16:33:26;74.40;;;36.88;;
43114;SDS011;28727;50.068;14.452;2022-11-20T16:35:58;75.85;;;36.38;;